createdAt,value
2018-12-13T00:01:46.407Z,17.50
2018-12-13T00:04:23.085Z,15.90
2018-12-13T00:06:56.760Z,16.17
2018-12-13T00:09:31.724Z,15.97
2018-12-13T00:12:06.822Z,15.93
2018-12-13T00:14:41.682Z,16.03
2018-12-13T00:17:15.116Z,16.77
2018-12-13T00:19:51.723Z,19.30
2018-12-13T00:22:26.799Z,16.90
2018-12-13T00:25:01.726Z,16.03
2018-12-13T00:27:36.856Z,17.50
2018-12-13T00:30:11.374Z,18.67
2018-12-13T00:32:46.815Z,15.27
2018-12-13T00:35:21.723Z,16.80
2018-12-13T00:37:55.971Z,15.93
2018-12-13T00:40:31.723Z,18.17
2018-12-13T00:43:09.452Z,16.80
2018-12-13T00:45:46.970Z,15.90
2018-12-13T00:48:23.774Z,16.33
2018-12-13T00:50:59.981Z,15.70
2018-12-13T00:53:36.765Z,17.27
2018-12-13T00:56:14.157Z,17.00
2018-12-13T00:58:48.589Z,15.33
2018-12-13T01:01:24.212Z,15.17
2018-12-13T01:04:00.950Z,15.97
2018-12-13T01:06:45.851Z,15.77
2018-12-13T01:09:17.153Z,15.63
2018-12-13T01:11:53.604Z,20.47
2018-12-13T01:14:28.123Z,16.70
2018-12-13T01:17:02.820Z,16.80
2018-12-13T01:19:37.795Z,20.23
2018-12-13T01:22:14.494Z,17.93
2018-12-13T01:24:49.031Z,18.43
2018-12-13T01:27:23.976Z,18.07
2018-12-13T01:29:59.266Z,18.03
2018-12-13T01:32:35.004Z,19.60
2018-12-13T01:35:09.324Z,18.33
2018-12-13T01:37:44.762Z,18.67
2018-12-13T01:40:18.909Z,16.63
2018-12-13T01:42:52.640Z,19.43
2018-12-13T01:45:31.015Z,17.43
2018-12-13T01:48:05.724Z,17.90
2018-12-13T01:50:38.836Z,20.30
2018-12-13T01:53:13.583Z,16.00
2018-12-13T01:55:48.375Z,14.43
2018-12-13T01:58:23.793Z,15.13
2018-12-13T02:00:58.282Z,13.87
2018-12-13T02:03:33.226Z,12.83
2018-12-13T02:06:16.990Z,11.10
2018-12-13T02:08:57.045Z,10.63
2018-12-13T02:11:31.725Z,8.40
2018-12-13T02:14:06.238Z,8.60
2018-12-13T02:16:38.980Z,8.00
2018-12-13T02:19:14.770Z,8.80
2018-12-13T02:21:49.512Z,8.13
2018-12-13T02:24:25.251Z,8.40
2018-12-13T02:27:00.973Z,8.67
2018-12-13T02:29:38.284Z,9.00
2018-12-13T02:32:13.922Z,8.07
2018-12-13T02:34:51.113Z,6.70
2018-12-13T02:37:27.630Z,8.00
2018-12-13T02:40:04.299Z,7.23
2018-12-13T02:42:39.789Z,7.33
2018-12-13T02:45:15.457Z,6.63
2018-12-13T02:47:52.618Z,8.27
2018-12-13T02:50:28.110Z,7.23
2018-12-13T02:53:02.627Z,7.17
2018-12-13T02:55:38.094Z,9.47
2018-12-13T02:58:12.880Z,7.90
2018-12-13T03:00:46.813Z,7.60
2018-12-13T03:03:20.953Z,7.13
2018-12-13T03:05:56.622Z,8.77
2018-12-13T03:08:30.993Z,7.13
2018-12-13T03:11:06.037Z,8.63
2018-12-13T03:13:41.403Z,8.10
2018-12-13T03:16:16.496Z,8.90
2018-12-13T03:18:53.613Z,8.37
2018-12-13T03:21:30.450Z,10.10
2018-12-13T03:24:06.467Z,10.33
2018-12-13T03:26:42.511Z,8.80
2018-12-13T03:29:16.686Z,10.17
2018-12-13T03:31:50.843Z,10.53
2018-12-13T03:34:25.481Z,10.63
2018-12-13T03:37:00.698Z,11.57
2018-12-13T03:39:34.422Z,11.67
2018-12-13T03:42:09.455Z,11.63
2018-12-13T03:44:46.073Z,12.07
2018-12-13T03:47:23.011Z,13.27
2018-12-13T03:49:58.029Z,14.53
2018-12-13T03:52:34.596Z,15.53
2018-12-13T03:55:09.812Z,14.63
2018-12-13T03:57:45.056Z,15.33
2018-12-13T04:00:18.198Z,15.17
2018-12-13T04:02:52.929Z,16.00
2018-12-13T04:05:28.102Z,16.03
2018-12-13T04:08:04.952Z,17.40
2018-12-13T04:10:37.489Z,14.03
2018-12-13T04:13:11.727Z,17.60
2018-12-13T04:15:45.991Z,16.20
2018-12-13T04:18:20.305Z,15.93
2018-12-13T04:20:54.885Z,10.77
2018-12-13T04:23:30.618Z,16.63
2018-12-13T04:26:06.356Z,17.57
2018-12-13T04:28:41.726Z,15.63
2018-12-13T04:31:18.889Z,17.67
2018-12-13T04:33:54.680Z,16.73
2018-12-13T04:36:30.086Z,15.93
2018-12-13T04:39:05.709Z,15.93
2018-12-13T04:41:39.512Z,17.77
2018-12-13T04:44:16.356Z,17.70
2018-12-13T04:46:52.929Z,12.60
2018-12-13T04:49:28.950Z,17.17
2018-12-13T04:52:04.387Z,15.33
2018-12-13T04:54:40.103Z,15.50
2018-12-13T04:57:15.820Z,16.03
2018-12-13T04:59:51.725Z,17.93
2018-12-13T05:02:26.300Z,17.20
2018-12-13T05:05:00.392Z,18.07
2018-12-13T05:07:33.640Z,16.47
2018-12-13T05:10:08.716Z,18.07
2018-12-13T05:12:43.364Z,16.50
2018-12-13T05:15:18.682Z,17.83
2018-12-13T05:17:51.727Z,17.97
2018-12-13T05:20:30.588Z,19.03
2018-12-13T05:23:06.312Z,15.50
2018-12-13T05:25:41.727Z,18.43
2018-12-13T05:28:18.386Z,21.00
2018-12-13T05:30:54.050Z,18.07
2018-12-13T05:33:30.240Z,18.27
2018-12-13T05:36:05.281Z,20.37
2018-12-13T05:38:39.798Z,17.33
2018-12-13T05:41:15.663Z,17.93
2018-12-13T05:43:56.154Z,19.57
2018-12-13T05:46:31.727Z,17.30
2018-12-13T05:49:07.990Z,18.63
2018-12-13T05:51:42.982Z,16.03
2018-12-13T05:54:18.172Z,19.80
2018-12-13T05:56:52.809Z,18.20
2018-12-13T05:59:26.902Z,20.70
2018-12-13T06:02:01.367Z,19.23
2018-12-13T06:04:37.758Z,18.97
2018-12-13T06:07:13.002Z,21.67
2018-12-13T06:09:49.265Z,24.53
2018-12-13T06:12:24.133Z,22.77
2018-12-13T06:15:00.847Z,23.37
2018-12-13T06:17:39.422Z,22.43
2018-12-13T06:20:12.821Z,23.43
2018-12-13T06:22:48.704Z,22.90
2018-12-13T06:25:23.710Z,25.93
2018-12-13T06:27:59.487Z,23.63
2018-12-13T06:30:34.459Z,23.23
2018-12-13T06:33:09.688Z,25.90
2018-12-13T06:35:42.894Z,24.13
2018-12-13T06:38:15.835Z,24.33
2018-12-13T06:40:49.712Z,23.07
2018-12-13T06:43:24.252Z,26.33
2018-12-13T06:45:59.214Z,27.83
2018-12-13T06:48:33.741Z,27.00
2018-12-13T06:51:07.444Z,25.60
2018-12-13T06:53:45.763Z,26.77
2018-12-13T06:56:20.527Z,27.10
2018-12-13T06:58:54.477Z,28.37
2018-12-13T07:01:30.399Z,28.80
2018-12-13T07:04:07.126Z,25.27
2018-12-13T07:06:42.832Z,28.57
2018-12-13T07:09:17.712Z,28.03
2018-12-13T07:11:47.927Z,28.90
2018-12-13T07:14:23.996Z,28.43
2018-12-13T07:16:58.066Z,28.70
2018-12-13T07:19:29.474Z,27.20
2018-12-13T07:22:01.579Z,27.33
2018-12-13T07:24:35.821Z,25.47
2018-12-13T07:27:09.135Z,27.63
2018-12-13T07:29:42.015Z,24.97
2018-12-13T07:32:13.128Z,24.20
2018-12-13T07:34:46.431Z,25.60
2018-12-13T07:37:21.728Z,26.47
2018-12-13T07:39:53.802Z,24.00
2018-12-13T07:42:23.661Z,23.13
2018-12-13T07:44:57.731Z,22.63
2018-12-13T07:47:32.304Z,22.50
2018-12-13T07:50:04.995Z,23.60
2018-12-13T07:52:37.876Z,22.47
2018-12-13T07:55:13.186Z,24.67
2018-12-13T07:57:47.564Z,22.93
2018-12-13T08:00:21.732Z,22.60
2018-12-13T08:02:55.937Z,22.50
2018-12-13T08:05:30.575Z,22.07
2018-12-13T08:08:02.782Z,22.77
2018-12-13T08:10:39.057Z,23.13
2018-12-13T08:13:13.412Z,21.63
2018-12-13T08:15:49.410Z,31.23
2018-12-13T08:18:24.328Z,22.43
2018-12-13T08:20:59.465Z,22.73
2018-12-13T08:23:35.817Z,23.00
2018-12-13T08:26:10.838Z,20.57
2018-12-13T08:28:43.735Z,21.87
2018-12-13T08:31:18.021Z,19.67
2018-12-13T08:33:52.737Z,21.37
2018-12-13T08:36:24.870Z,22.53
2018-12-13T08:38:58.228Z,22.00
2018-12-13T08:41:31.712Z,21.57
2018-12-13T08:44:09.471Z,20.03
2018-12-13T08:46:46.827Z,22.57
2018-12-13T08:49:20.177Z,21.00
2018-12-13T08:51:53.903Z,18.27
2018-12-13T08:54:29.080Z,21.17
2018-12-13T08:57:05.184Z,19.83
2018-12-13T08:59:40.786Z,20.83
2018-12-13T09:02:16.108Z,19.73
2018-12-13T09:04:50.401Z,20.17
2018-12-13T09:07:24.605Z,18.43
2018-12-13T09:09:55.148Z,21.23
2018-12-13T09:12:31.708Z,21.00
2018-12-13T09:15:06.666Z,21.83
2018-12-13T09:17:43.386Z,20.33
2018-12-13T09:20:18.974Z,22.20
2018-12-13T09:22:54.795Z,21.87
2018-12-13T09:25:29.551Z,22.87
2018-12-13T09:28:05.451Z,20.73
2018-12-13T09:30:40.655Z,22.27
2018-12-13T09:33:16.956Z,22.37
2018-12-13T09:35:52.124Z,22.63
2018-12-13T09:41:03.731Z,19.20
2018-12-13T09:43:37.560Z,23.27
2018-12-13T09:46:13.083Z,22.57
2018-12-13T09:48:44.464Z,21.07
2018-12-13T09:51:19.321Z,20.17
2018-12-13T09:53:54.736Z,22.97
2018-12-13T09:56:28.996Z,22.43
2018-12-13T09:59:05.093Z,22.03
2018-12-13T10:01:39.211Z,22.13
2018-12-13T10:04:08.978Z,20.23
2018-12-13T10:06:41.161Z,20.57
2018-12-13T10:09:14.969Z,19.10
2018-12-13T10:11:51.600Z,21.47
2018-12-13T10:14:26.629Z,20.00
2018-12-13T10:17:00.899Z,21.10
2018-12-13T10:19:37.043Z,19.93
2018-12-13T10:22:11.985Z,22.77
2018-12-13T10:24:47.306Z,31.97
2018-12-13T10:27:22.980Z,24.03
2018-12-13T10:29:58.435Z,35.27
2018-12-13T10:32:33.835Z,19.47
2018-12-13T10:35:11.750Z,17.50
2018-12-13T10:37:47.020Z,19.13
2018-12-13T10:40:25.552Z,20.10
2018-12-13T10:42:56.421Z,17.80
2018-12-13T10:45:28.071Z,18.03
2018-12-13T10:47:58.193Z,17.87
2018-12-13T10:50:33.741Z,19.67
2018-12-13T10:53:02.705Z,19.17
2018-12-13T10:55:34.540Z,17.23
2018-12-13T10:58:08.610Z,19.43
2018-12-13T11:00:46.201Z,16.57
2018-12-13T11:03:24.696Z,16.83
2018-12-13T11:06:01.180Z,16.67
2018-12-13T11:08:35.571Z,15.53
2018-12-13T11:11:10.568Z,15.67
2018-12-13T11:13:44.589Z,16.27
2018-12-13T11:16:20.428Z,16.77
2018-12-13T11:18:54.797Z,16.87
2018-12-13T11:21:24.333Z,14.97
2018-12-13T11:23:55.457Z,16.07
2018-12-13T11:26:28.442Z,13.20
2018-12-13T11:31:55.062Z,14.57
2018-12-13T11:34:23.095Z,14.50
2018-12-13T11:36:54.929Z,15.47
2018-12-13T11:39:23.612Z,16.07
2018-12-13T11:41:56.067Z,16.30
2018-12-13T11:44:26.405Z,15.50
2018-12-13T11:46:59.879Z,16.13
2018-12-13T11:49:31.729Z,14.97
2018-12-13T11:52:05.265Z,14.67
2018-12-13T11:54:38.524Z,15.00
2018-12-13T11:57:11.103Z,14.57
2018-12-13T11:59:45.516Z,15.53
2018-12-13T12:02:23.968Z,14.00
2018-12-13T12:04:57.748Z,14.03
2018-12-13T12:07:31.728Z,13.50
2018-12-13T12:10:00.609Z,13.03
2018-12-13T12:12:34.586Z,12.63
2018-12-13T12:15:03.365Z,13.13
2018-12-13T12:17:36.871Z,11.43
2018-12-13T12:20:10.997Z,14.60
2018-12-13T12:22:45.832Z,14.17
2018-12-13T12:25:21.728Z,13.23
2018-12-13T12:27:56.732Z,15.57
2018-12-13T12:30:31.575Z,13.47
2018-12-13T12:33:05.703Z,13.47
2018-12-13T12:35:38.910Z,13.70
2018-12-13T12:38:12.963Z,14.17
2018-12-13T12:40:48.688Z,14.10
2018-12-13T12:43:24.017Z,15.50
2018-12-13T12:45:52.374Z,15.97
2018-12-13T12:48:26.798Z,15.47
2018-12-13T12:50:55.415Z,14.00
2018-12-13T12:53:28.529Z,16.30
2018-12-13T12:56:03.894Z,14.07
2018-12-13T12:58:37.373Z,13.57
2018-12-13T13:01:11.729Z,13.20
2018-12-13T13:03:45.808Z,14.67
2018-12-13T13:06:20.109Z,14.60
2018-12-13T13:08:54.484Z,15.77
2018-12-13T13:11:27.549Z,15.27
2018-12-13T13:14:01.437Z,14.83
2018-12-13T13:16:32.985Z,16.13
2018-12-13T13:19:07.009Z,19.33
2018-12-13T13:21:39.602Z,18.47
2018-12-13T13:24:16.262Z,19.17
2018-12-13T13:26:50.089Z,17.73
2018-12-13T13:29:24.299Z,17.43
2018-12-13T13:31:57.367Z,16.87
2018-12-13T13:34:26.411Z,15.90
2018-12-13T13:36:59.809Z,17.17
2018-12-13T13:39:31.668Z,16.20
2018-12-13T13:42:03.282Z,16.57
2018-12-13T13:44:39.094Z,18.17
2018-12-13T13:47:11.729Z,18.90
2018-12-13T13:49:43.887Z,21.63
2018-12-13T13:52:18.023Z,20.83
2018-12-13T13:54:52.460Z,21.67
2018-12-13T13:57:25.083Z,21.10
2018-12-13T13:59:59.583Z,22.40
2018-12-13T14:02:34.090Z,20.70
2018-12-13T14:05:08.544Z,23.27
2018-12-13T14:07:42.957Z,21.57
2018-12-13T14:10:20.511Z,22.20
2018-12-13T14:12:51.729Z,22.20
2018-12-13T14:15:22.483Z,23.47
2018-12-13T14:17:56.049Z,22.17
2018-12-13T14:20:30.568Z,24.50
2018-12-13T14:23:03.465Z,26.73
2018-12-13T14:25:38.106Z,20.07
2018-12-13T14:28:10.046Z,22.40
2018-12-13T14:30:46.523Z,22.20
2018-12-13T14:33:22.499Z,20.80
2018-12-13T14:35:55.701Z,23.47
2018-12-13T14:38:30.532Z,21.93
2018-12-13T14:41:03.029Z,23.17
2018-12-13T14:43:36.304Z,22.20
2018-12-13T14:46:04.960Z,24.17
2018-12-13T14:48:37.651Z,24.60
2018-12-13T14:51:11.728Z,24.97
2018-12-13T14:53:46.446Z,20.97
2018-12-13T14:56:20.225Z,22.50
2018-12-13T14:58:54.227Z,25.93
2018-12-13T15:01:26.741Z,24.03
2018-12-13T15:04:00.510Z,22.20
2018-12-13T15:06:37.173Z,24.00
2018-12-13T15:09:11.727Z,25.60
2018-12-13T15:11:43.871Z,27.53
2018-12-13T15:14:14.370Z,25.57
2018-12-13T15:16:42.768Z,25.07
2018-12-13T15:19:18.261Z,27.73
2018-12-13T15:21:51.727Z,26.30
2018-12-13T15:24:26.816Z,24.00
2018-12-13T15:27:00.928Z,25.23
2018-12-13T15:29:35.409Z,28.13
2018-12-13T15:32:09.303Z,23.90
2018-12-13T15:34:42.801Z,28.23
2018-12-13T15:37:16.528Z,24.87
2018-12-13T15:39:57.066Z,25.60
2018-12-13T15:42:31.726Z,26.50
2018-12-13T15:45:11.726Z,26.33
2018-12-13T15:47:45.203Z,26.43
2018-12-13T15:50:19.490Z,26.53
2018-12-13T15:52:52.601Z,28.07
2018-12-13T15:55:27.694Z,28.27
2018-12-13T15:58:04.766Z,26.73
2018-12-13T16:00:38.578Z,24.93
2018-12-13T16:03:13.256Z,25.37
2018-12-13T16:05:49.862Z,25.53
2018-12-13T16:08:22.263Z,26.73
2018-12-13T16:10:55.089Z,27.07
2018-12-13T16:13:28.630Z,27.10
2018-12-13T16:16:02.950Z,27.07
2018-12-13T16:18:33.620Z,25.17
2018-12-13T16:21:05.272Z,27.83
2018-12-13T16:23:39.783Z,24.67
2018-12-13T16:26:11.738Z,27.37
2018-12-13T16:28:47.311Z,27.43
2018-12-13T16:31:22.657Z,26.87
2018-12-13T16:33:52.486Z,24.83
2018-12-13T16:36:22.640Z,26.53
2018-12-13T16:38:54.108Z,28.13
2018-12-13T16:41:23.415Z,25.27
2018-12-13T16:43:51.225Z,26.80
2018-12-13T16:46:21.276Z,27.60
2018-12-13T16:48:49.070Z,29.40
2018-12-13T16:51:19.518Z,26.73
2018-12-13T16:53:51.666Z,28.17
2018-12-13T16:56:24.339Z,24.33
2018-12-13T16:58:53.563Z,28.00
2018-12-13T17:01:23.093Z,28.77
2018-12-13T17:03:52.724Z,28.43
2018-12-13T17:06:22.525Z,25.23
2018-12-13T17:08:52.431Z,27.13
2018-12-13T17:11:22.574Z,27.07
2018-12-13T17:13:54.006Z,22.67
2018-12-13T17:16:24.122Z,25.17
2018-12-13T17:18:53.292Z,25.43
2018-12-13T17:21:23.809Z,25.43
2018-12-13T17:23:53.171Z,29.23
2018-12-13T17:26:23.077Z,27.90
2018-12-13T17:28:53.424Z,24.30
2018-12-13T17:31:25.239Z,28.73
2018-12-13T17:33:57.251Z,27.13
2018-12-13T17:36:27.767Z,28.40
2018-12-13T17:38:59.268Z,26.90
2018-12-13T17:41:29.225Z,27.10
2018-12-13T17:44:01.790Z,30.83
2018-12-13T17:46:33.255Z,29.97
2018-12-13T17:49:03.457Z,28.70
2018-12-13T17:51:33.016Z,27.80
2018-12-13T17:54:02.396Z,27.20
2018-12-13T17:56:32.603Z,27.57
2018-12-13T17:59:02.266Z,25.27
2018-12-13T18:01:32.593Z,28.50
2018-12-13T18:04:02.848Z,29.30
2018-12-13T18:06:32.930Z,27.80
2018-12-13T18:09:05.381Z,27.83
2018-12-13T18:11:34.859Z,26.47
2018-12-13T18:14:04.473Z,29.73
2018-12-13T18:16:34.306Z,26.67
2018-12-13T18:19:06.165Z,27.83
2018-12-13T18:21:36.760Z,26.63
2018-12-13T18:24:12.650Z,26.47
2018-12-13T18:26:44.666Z,24.90
2018-12-13T18:29:16.833Z,27.97
2018-12-13T18:31:47.218Z,27.13
2018-12-13T18:34:17.466Z,28.50
2018-12-13T18:36:47.502Z,26.40
2018-12-13T18:39:17.124Z,25.07
2018-12-13T18:41:47.076Z,25.90
2018-12-13T18:44:17.371Z,26.00
2018-12-13T18:46:49.117Z,26.50
2018-12-13T18:49:21.015Z,25.60
2018-12-13T18:51:51.514Z,29.30
2018-12-13T18:54:22.562Z,27.90
2018-12-13T18:56:51.996Z,28.13
2018-12-13T18:59:22.428Z,27.80
2018-12-13T19:01:53.939Z,30.00
2018-12-13T19:04:24.918Z,32.30
2018-12-13T19:06:53.875Z,31.10
2018-12-13T19:09:23.250Z,33.97
2018-12-13T19:12:02.383Z,34.33
2018-12-13T19:14:34.792Z,35.73
2018-12-13T19:17:04.278Z,35.50
2018-12-13T19:19:39.809Z,30.90
2018-12-13T19:22:10.723Z,34.13
2018-12-13T19:24:39.889Z,39.13
2018-12-13T19:27:11.174Z,33.50
2018-12-13T19:29:42.235Z,34.93
2018-12-13T19:32:12.671Z,33.27
2018-12-13T19:34:45.754Z,33.17
2018-12-13T19:37:18.062Z,33.33
2018-12-13T19:39:51.810Z,34.27
2018-12-13T19:42:22.894Z,32.63
2018-12-13T19:44:52.560Z,31.57
2018-12-13T19:47:21.340Z,29.73
2018-12-13T19:49:51.338Z,30.83
2018-12-13T19:52:22.202Z,33.63
2018-12-13T19:54:52.850Z,30.77
2018-12-13T19:57:23.359Z,30.80
2018-12-13T19:59:53.361Z,29.90
2018-12-13T20:02:23.641Z,27.17
2018-12-13T20:04:55.909Z,28.10
2018-12-13T20:07:28.229Z,29.83
2018-12-13T20:09:59.023Z,28.43
2018-12-13T20:12:30.343Z,24.13
2018-12-13T20:15:03.127Z,27.90
2018-12-13T20:17:32.404Z,28.97
2018-12-13T20:20:02.640Z,29.57
2018-12-13T20:22:32.786Z,31.33
2018-12-13T20:25:02.440Z,29.73
2018-12-13T20:27:32.475Z,29.37
2018-12-13T20:30:01.972Z,26.70
2018-12-13T20:32:34.156Z,31.97
2018-12-13T20:35:06.392Z,23.47
2018-12-13T20:37:34.969Z,28.07
2018-12-13T20:40:06.682Z,25.97
2018-12-13T20:42:36.124Z,23.10
2018-12-13T20:45:06.758Z,24.23
2018-12-13T20:47:38.574Z,25.50
2018-12-13T20:50:07.242Z,24.33
2018-12-13T20:52:37.915Z,28.87
2018-12-13T20:55:07.644Z,26.47
2018-12-13T20:57:38.030Z,28.03
2018-12-13T21:00:11.609Z,26.10
2018-12-13T21:02:43.373Z,26.57
2018-12-13T21:05:14.923Z,25.67
2018-12-13T21:07:47.100Z,28.17
2018-12-13T21:10:16.852Z,28.83
2018-12-13T21:12:47.649Z,28.47
2018-12-13T21:15:21.359Z,22.97
2018-12-13T21:17:51.915Z,25.43
2018-12-13T21:20:22.399Z,26.53
2018-12-13T21:22:56.990Z,24.63
2018-12-13T21:25:27.590Z,26.80
2018-12-13T21:28:00.730Z,25.90
2018-12-13T21:30:32.277Z,27.23
2018-12-13T21:33:04.838Z,27.17
2018-12-13T21:35:36.387Z,28.53
2018-12-13T21:38:07.358Z,25.77
2018-12-13T21:40:36.168Z,27.37
2018-12-13T21:43:05.024Z,27.80
2018-12-13T21:45:35.340Z,27.83
2018-12-13T21:48:03.434Z,27.87
2018-12-13T21:50:34.523Z,26.10
2018-12-13T21:53:05.031Z,24.70
2018-12-13T21:55:36.024Z,27.80
2018-12-13T21:58:05.532Z,27.40
2018-12-13T22:00:34.397Z,27.67
2018-12-13T22:03:06.191Z,26.40
2018-12-13T22:05:39.628Z,27.17
2018-12-13T22:08:13.705Z,25.97
2018-12-13T22:10:48.246Z,26.63
2018-12-13T22:13:23.260Z,28.63
2018-12-13T22:16:01.733Z,30.07
2018-12-13T22:18:30.200Z,26.67
2018-12-13T22:21:04.437Z,24.60
2018-12-13T22:23:38.778Z,28.03
2018-12-13T22:26:14.437Z,30.03
2018-12-13T22:28:48.998Z,23.73
2018-12-13T22:31:19.069Z,26.77
2018-12-13T22:33:51.932Z,30.50
2018-12-13T22:36:28.734Z,25.07
2018-12-13T22:39:03.227Z,26.63
2018-12-13T22:41:36.700Z,27.90
2018-12-13T22:44:11.297Z,28.90
2018-12-13T22:46:39.157Z,28.80
2018-12-13T22:49:07.753Z,29.43
2018-12-13T22:51:41.734Z,27.43
2018-12-13T22:54:13.505Z,28.43
2018-12-13T22:56:47.159Z,27.73
2018-12-13T22:59:21.639Z,26.77
2018-12-13T23:01:55.530Z,30.80
2018-12-13T23:04:30.351Z,27.13
2018-12-13T23:07:02.927Z,26.37
2018-12-13T23:09:36.224Z,28.03
2018-12-13T23:12:09.452Z,26.90
2018-12-13T23:14:40.862Z,29.00
2018-12-13T23:17:12.835Z,28.53
2018-12-13T23:19:45.151Z,31.57
2018-12-13T23:22:21.735Z,26.03
2018-12-13T23:24:52.921Z,28.43
2018-12-13T23:27:25.236Z,28.27
2018-12-13T23:29:57.912Z,27.63
2018-12-13T23:32:32.654Z,28.37
2018-12-13T23:35:04.791Z,31.27
2018-12-13T23:37:38.075Z,31.53
2018-12-13T23:40:11.223Z,30.47
2018-12-13T23:42:46.682Z,30.07
2018-12-13T23:45:20.385Z,32.50
2018-12-13T23:47:56.102Z,31.50
2018-12-13T23:50:31.734Z,31.70
2018-12-13T23:53:09.011Z,31.67
2018-12-13T23:55:44.232Z,30.07
2018-12-13T23:58:19.054Z,29.03
